sensor_id;sensor_type;location;lat;lon;timestamp;temperature;humidity
3770;DHT22;1900;48.890;9.190;2023-05-02T00:00:27;17.30;54.90
3770;DHT22;1900;48.890;9.190;2023-05-02T00:02:53;17.30;55.00
3770;DHT22;1900;48.890;9.190;2023-05-02T00:05:18;17.20;54.90
3770;DHT22;1900;48.890;9.190;2023-05-02T00:07:44;17.20;54.90
3770;DHT22;1900;48.890;9.190;2023-05-02T00:10:10;17.20;54.90
3770;DHT22;1900;48.890;9.190;2023-05-02T00:12:36;17.20;55.00
3770;DHT22;1900;48.890;9.190;2023-05-02T00:15:03;17.20;55.00
3770;DHT22;1900;48.890;9.190;2023-05-02T00:17:29;17.20;55.00
3770;DHT22;1900;48.890;9.190;2023-05-02T00:19:55;17.10;54.90
3770;DHT22;1900;48.890;9.190;2023-05-02T00:22:21;17.10;54.80
3770;DHT22;1900;48.890;9.190;2023-05-02T00:24:46;17.10;54.90
3770;DHT22;1900;48.890;9.190;2023-05-02T00:27:12;17.10;54.90
3770;DHT22;1900;48.890;9.190;2023-05-02T00:29:39;17.10;54.90
3770;DHT22;1900;48.890;9.190;2023-05-02T00:32:05;17.00;54.80
3770;DHT22;1900;48.890;9.190;2023-05-02T00:34:31;17.00;54.80
3770;DHT22;1900;48.890;9.190;2023-05-02T00:36:57;17.00;54.80
3770;DHT22;1900;48.890;9.190;2023-05-02T00:39:23;17.00;54.90
3770;DHT22;1900;48.890;9.190;2023-05-02T00:41:49;16.90;54.80
3770;DHT22;1900;48.890;9.190;2023-05-02T00:44:20;16.90;54.80
3770;DHT22;1900;48.890;9.190;2023-05-02T00:46:46;16.90;54.80
3770;DHT22;1900;48.890;9.190;2023-05-02T00:49:12;16.90;54.80
3770;DHT22;1900;48.890;9.190;2023-05-02T00:51:39;16.90;54.90
3770;DHT22;1900;48.890;9.190;2023-05-02T00:54:05;16.90;54.90
3770;DHT22;1900;48.890;9.190;2023-05-02T00:56:31;16.90;55.00
3770;DHT22;1900;48.890;9.190;2023-05-02T00:58:57;16.90;55.00
3770;DHT22;1900;48.890;9.190;2023-05-02T01:13:08;16.80;55.00
3770;DHT22;1900;48.890;9.190;2023-05-02T01:15:37;16.80;55.00
3770;DHT22;1900;48.890;9.190;2023-05-02T01:18:04;16.70;54.90
3770;DHT22;1900;48.890;9.190;2023-05-02T01:20:32;16.70;54.90
3770;DHT22;1900;48.890;9.190;2023-05-02T01:23:05;16.70;54.90
3770;DHT22;1900;48.890;9.190;2023-05-02T01:26:21;16.70;54.90
3770;DHT22;1900;48.890;9.190;2023-05-02T01:31:14;16.70;55.00
3770;DHT22;1900;48.890;9.190;2023-05-02T01:33:41;16.70;55.00
3770;DHT22;1900;48.890;9.190;2023-05-02T01:36:09;16.70;55.00
3770;DHT22;1900;48.890;9.190;2023-05-02T01:38:36;16.70;55.00
3770;DHT22;1900;48.890;9.190;2023-05-02T01:41:04;16.70;55.00
3770;DHT22;1900;48.890;9.190;2023-05-02T01:43:33;16.70;55.00
3770;DHT22;1900;48.890;9.190;2023-05-02T01:46:01;16.60;54.90
3770;DHT22;1900;48.890;9.190;2023-05-02T01:48:28;16.60;54.90
3770;DHT22;1900;48.890;9.190;2023-05-02T01:50:55;16.60;54.90
3770;DHT22;1900;48.890;9.190;2023-05-02T01:53:25;16.60;55.00
3770;DHT22;1900;48.890;9.190;2023-05-02T01:55:53;16.60;55.00
3770;DHT22;1900;48.890;9.190;2023-05-02T01:58:21;16.60;55.00
3770;DHT22;1900;48.890;9.190;2023-05-02T02:00:47;16.60;55.00
3770;DHT22;1900;48.890;9.190;2023-05-02T02:03:14;16.60;55.00
3770;DHT22;1900;48.890;9.190;2023-05-02T02:05:40;16.60;55.00
3770;DHT22;1900;48.890;9.190;2023-05-02T02:08:07;16.60;55.00
3770;DHT22;1900;48.890;9.190;2023-05-02T02:10:36;16.60;55.00
3770;DHT22;1900;48.890;9.190;2023-05-02T02:13:28;16.60;55.00
3770;DHT22;1900;48.890;9.190;2023-05-02T02:15:58;16.60;55.10
3770;DHT22;1900;48.890;9.190;2023-05-02T02:18:26;16.50;55.00
3770;DHT22;1900;48.890;9.190;2023-05-02T02:20:54;16.50;55.00
3770;DHT22;1900;48.890;9.190;2023-05-02T02:23:22;16.50;55.00
3770;DHT22;1900;48.890;9.190;2023-05-02T02:25:51;16.50;55.00
3770;DHT22;1900;48.890;9.190;2023-05-02T02:28:18;16.50;55.00
3770;DHT22;1900;48.890;9.190;2023-05-02T02:30:43;16.50;55.00
3770;DHT22;1900;48.890;9.190;2023-05-02T02:33:09;16.40;54.80
3770;DHT22;1900;48.890;9.190;2023-05-02T02:35:39;16.40;54.90
3770;DHT22;1900;48.890;9.190;2023-05-02T02:38:35;16.40;54.90
3770;DHT22;1900;48.890;9.190;2023-05-02T02:41:12;16.40;54.90
3770;DHT22;1900;48.890;9.190;2023-05-02T02:49:06;16.30;54.90
3770;DHT22;1900;48.890;9.190;2023-05-02T02:51:43;16.30;54.90
3770;DHT22;1900;48.890;9.190;2023-05-02T02:54:28;16.30;54.90
3770;DHT22;1900;48.890;9.190;2023-05-02T02:59:45;16.30;55.00
3770;DHT22;1900;48.890;9.190;2023-05-02T03:02:14;16.20;54.80
3770;DHT22;1900;48.890;9.190;2023-05-02T03:04:42;16.20;54.90
3770;DHT22;1900;48.890;9.190;2023-05-02T03:07:09;16.20;55.00
3770;DHT22;1900;48.890;9.190;2023-05-02T03:09:45;16.20;55.00
3770;DHT22;1900;48.890;9.190;2023-05-02T03:12:16;16.20;55.10
3770;DHT22;1900;48.890;9.190;2023-05-02T03:14:43;16.20;55.00
3770;DHT22;1900;48.890;9.190;2023-05-02T03:17:10;16.20;55.10
3770;DHT22;1900;48.890;9.190;2023-05-02T03:19:36;16.20;55.10
3770;DHT22;1900;48.890;9.190;2023-05-02T03:22:03;16.20;55.10
3770;DHT22;1900;48.890;9.190;2023-05-02T03:24:29;16.20;55.10
3770;DHT22;1900;48.890;9.190;2023-05-02T03:26:57;16.20;55.20
3770;DHT22;1900;48.890;9.190;2023-05-02T03:29:27;16.20;55.20
3770;DHT22;1900;48.890;9.190;2023-05-02T03:31:53;16.20;55.20
3770;DHT22;1900;48.890;9.190;2023-05-02T03:34:20;16.20;55.20
3770;DHT22;1900;48.890;9.190;2023-05-02T03:36:47;16.20;55.10
3770;DHT22;1900;48.890;9.190;2023-05-02T03:39:14;16.20;55.10
3770;DHT22;1900;48.890;9.190;2023-05-02T03:41:40;16.20;55.10
3770;DHT22;1900;48.890;9.190;2023-05-02T03:44:11;16.20;55.00
3770;DHT22;1900;48.890;9.190;2023-05-02T03:46:37;16.20;55.10
3770;DHT22;1900;48.890;9.190;2023-05-02T03:49:06;16.10;55.10
3770;DHT22;1900;48.890;9.190;2023-05-02T03:51:33;16.20;55.30
3770;DHT22;1900;48.890;9.190;2023-05-02T03:54:00;16.20;55.40
3770;DHT22;1900;48.890;9.190;2023-05-02T03:56:27;16.20;55.50
3770;DHT22;1900;48.890;9.190;2023-05-02T03:59:04;16.20;55.50
3770;DHT22;1900;48.890;9.190;2023-05-02T04:01:31;16.20;55.40
3770;DHT22;1900;48.890;9.190;2023-05-02T04:03:58;16.20;55.30
3770;DHT22;1900;48.890;9.190;2023-05-02T04:06:27;16.20;55.90
3770;DHT22;1900;48.890;9.190;2023-05-02T04:08:57;16.20;55.50
3770;DHT22;1900;48.890;9.190;2023-05-02T04:11:25;16.20;55.60
3770;DHT22;1900;48.890;9.190;2023-05-02T04:13:52;16.20;55.60
3770;DHT22;1900;48.890;9.190;2023-05-02T04:16:18;16.20;55.70
3770;DHT22;1900;48.890;9.190;2023-05-02T04:18:44;16.20;55.70
3770;DHT22;1900;48.890;9.190;2023-05-02T04:21:10;16.20;55.80
3770;DHT22;1900;48.890;9.190;2023-05-02T04:23:37;16.20;55.50
3770;DHT22;1900;48.890;9.190;2023-05-02T04:26:03;16.20;55.60
3770;DHT22;1900;48.890;9.190;2023-05-02T04:28:35;16.20;55.70
3770;DHT22;1900;48.890;9.190;2023-05-02T04:31:02;16.30;55.80
3770;DHT22;1900;48.890;9.190;2023-05-02T04:33:28;16.30;55.90
3770;DHT22;1900;48.890;9.190;2023-05-02T04:35:55;16.30;56.00
3770;DHT22;1900;48.890;9.190;2023-05-02T04:38:22;16.30;56.00
3770;DHT22;1900;48.890;9.190;2023-05-02T04:40:52;16.40;56.00
3770;DHT22;1900;48.890;9.190;2023-05-02T04:43:23;16.40;56.00
3770;DHT22;1900;48.890;9.190;2023-05-02T04:45:54;16.40;56.00
3770;DHT22;1900;48.890;9.190;2023-05-02T04:48:26;16.40;56.60
3770;DHT22;1900;48.890;9.190;2023-05-02T04:50:52;16.40;56.00
3770;DHT22;1900;48.890;9.190;2023-05-02T04:53:21;16.50;56.10
3770;DHT22;1900;48.890;9.190;2023-05-02T04:55:47;16.50;56.10
3770;DHT22;1900;48.890;9.190;2023-05-02T04:58:12;16.50;56.10
3770;DHT22;1900;48.890;9.190;2023-05-02T05:00:39;16.50;56.10
3770;DHT22;1900;48.890;9.190;2023-05-02T05:03:05;16.50;56.20
3770;DHT22;1900;48.890;9.190;2023-05-02T05:05:31;16.60;56.20
3770;DHT22;1900;48.890;9.190;2023-05-02T05:07:57;16.60;56.20
3770;DHT22;1900;48.890;9.190;2023-05-02T05:10:25;16.60;56.10
3770;DHT22;1900;48.890;9.190;2023-05-02T05:12:50;16.60;56.20
3770;DHT22;1900;48.890;9.190;2023-05-02T05:15:18;16.60;56.20
3770;DHT22;1900;48.890;9.190;2023-05-02T05:17:53;16.60;56.30
3770;DHT22;1900;48.890;9.190;2023-05-02T05:20:19;16.70;56.40
3770;DHT22;1900;48.890;9.190;2023-05-02T05:22:46;16.70;56.30
3770;DHT22;1900;48.890;9.190;2023-05-02T05:25:13;16.60;56.20
3770;DHT22;1900;48.890;9.190;2023-05-02T05:27:41;16.70;56.30
3770;DHT22;1900;48.890;9.190;2023-05-02T05:30:08;16.70;56.30
3770;DHT22;1900;48.890;9.190;2023-05-02T05:32:35;16.60;56.10
3770;DHT22;1900;48.890;9.190;2023-05-02T05:35:00;16.60;56.00
3770;DHT22;1900;48.890;9.190;2023-05-02T05:37:27;16.60;56.80
3770;DHT22;1900;48.890;9.190;2023-05-02T05:39:54;16.60;56.20
3770;DHT22;1900;48.890;9.190;2023-05-02T05:42:20;16.60;56.20
3770;DHT22;1900;48.890;9.190;2023-05-02T05:44:48;16.60;56.30
3770;DHT22;1900;48.890;9.190;2023-05-02T05:47:19;16.60;56.30
3770;DHT22;1900;48.890;9.190;2023-05-02T05:49:47;16.60;56.40
3770;DHT22;1900;48.890;9.190;2023-05-02T05:52:16;16.60;56.40
3770;DHT22;1900;48.890;9.190;2023-05-02T05:54:42;16.60;56.50
3770;DHT22;1900;48.890;9.190;2023-05-02T05:57:08;16.70;56.70
3770;DHT22;1900;48.890;9.190;2023-05-02T05:59:34;16.70;56.80
3770;DHT22;1900;48.890;9.190;2023-05-02T06:02:01;16.70;56.60
3770;DHT22;1900;48.890;9.190;2023-05-02T06:04:26;16.70;56.60
3770;DHT22;1900;48.890;9.190;2023-05-02T06:06:52;16.70;56.60
3770;DHT22;1900;48.890;9.190;2023-05-02T06:09:18;16.70;56.80
3770;DHT22;1900;48.890;9.190;2023-05-02T06:11:44;16.80;56.80
3770;DHT22;1900;48.890;9.190;2023-05-02T06:14:10;16.70;57.10
3770;DHT22;1900;48.890;9.190;2023-05-02T06:16:36;16.70;56.60
3770;DHT22;1900;48.890;9.190;2023-05-02T06:19:02;16.80;56.90
3770;DHT22;1900;48.890;9.190;2023-05-02T06:21:27;16.80;56.90
3770;DHT22;1900;48.890;9.190;2023-05-02T06:23:53;16.80;57.00
3770;DHT22;1900;48.890;9.190;2023-05-02T06:26:18;16.90;57.30
3770;DHT22;1900;48.890;9.190;2023-05-02T06:28:44;16.90;57.10
3770;DHT22;1900;48.890;9.190;2023-05-02T06:31:10;16.90;57.00
3770;DHT22;1900;48.890;9.190;2023-05-02T06:33:36;16.90;57.20
3770;DHT22;1900;48.890;9.190;2023-05-02T06:36:02;17.00;57.40
3770;DHT22;1900;48.890;9.190;2023-05-02T06:38:28;17.00;57.20
3770;DHT22;1900;48.890;9.190;2023-05-02T06:40:54;17.00;57.20
3770;DHT22;1900;48.890;9.190;2023-05-02T06:43:19;17.00;57.30
3770;DHT22;1900;48.890;9.190;2023-05-02T06:45:45;17.00;57.10
3770;DHT22;1900;48.890;9.190;2023-05-02T06:48:11;17.00;57.20
3770;DHT22;1900;48.890;9.190;2023-05-02T06:50:37;17.00;57.40
3770;DHT22;1900;48.890;9.190;2023-05-02T06:53:06;17.10;57.60
3770;DHT22;1900;48.890;9.190;2023-05-02T06:55:31;17.10;57.50
3770;DHT22;1900;48.890;9.190;2023-05-02T06:57:58;17.20;57.50
3770;DHT22;1900;48.890;9.190;2023-05-02T07:00:24;17.20;57.40
3770;DHT22;1900;48.890;9.190;2023-05-02T07:02:50;17.20;57.30
3770;DHT22;1900;48.890;9.190;2023-05-02T07:05:15;17.20;57.20
3770;DHT22;1900;48.890;9.190;2023-05-02T07:07:42;17.20;57.30
3770;DHT22;1900;48.890;9.190;2023-05-02T07:10:08;17.20;57.30
3770;DHT22;1900;48.890;9.190;2023-05-02T07:12:34;17.20;57.30
3770;DHT22;1900;48.890;9.190;2023-05-02T07:15:00;17.20;57.30
3770;DHT22;1900;48.890;9.190;2023-05-02T07:17:26;17.20;57.40
3770;DHT22;1900;48.890;9.190;2023-05-02T07:19:52;17.20;57.30
3770;DHT22;1900;48.890;9.190;2023-05-02T07:22:20;17.20;57.40
3770;DHT22;1900;48.890;9.190;2023-05-02T07:24:46;17.20;57.40
3770;DHT22;1900;48.890;9.190;2023-05-02T07:27:12;17.20;57.40
3770;DHT22;1900;48.890;9.190;2023-05-02T07:29:38;17.20;57.60
3770;DHT22;1900;48.890;9.190;2023-05-02T07:32:04;17.20;57.30
3770;DHT22;1900;48.890;9.190;2023-05-02T07:34:30;17.20;57.30
3770;DHT22;1900;48.890;9.190;2023-05-02T07:36:57;17.20;57.40
3770;DHT22;1900;48.890;9.190;2023-05-02T07:39:23;17.20;57.40
3770;DHT22;1900;48.890;9.190;2023-05-02T07:41:53;17.20;57.60
3770;DHT22;1900;48.890;9.190;2023-05-02T07:44:19;17.20;57.60
3770;DHT22;1900;48.890;9.190;2023-05-02T07:46:45;17.30;57.70
3770;DHT22;1900;48.890;9.190;2023-05-02T07:49:12;17.30;57.80
3770;DHT22;1900;48.890;9.190;2023-05-02T07:51:38;17.30;57.80
3770;DHT22;1900;48.890;9.190;2023-05-02T07:54:17;17.30;57.90
3770;DHT22;1900;48.890;9.190;2023-05-02T07:56:43;17.40;58.00
3770;DHT22;1900;48.890;9.190;2023-05-02T07:59:09;17.50;58.10
3770;DHT22;1900;48.890;9.190;2023-05-02T08:01:34;17.50;58.10
3770;DHT22;1900;48.890;9.190;2023-05-02T08:04:00;17.50;58.10
3770;DHT22;1900;48.890;9.190;2023-05-02T08:06:26;17.50;58.10
3770;DHT22;1900;48.890;9.190;2023-05-02T08:08:53;17.60;58.30
3770;DHT22;1900;48.890;9.190;2023-05-02T08:11:18;17.60;58.20
3770;DHT22;1900;48.890;9.190;2023-05-02T08:13:46;17.70;58.40
3770;DHT22;1900;48.890;9.190;2023-05-02T08:16:12;17.70;58.30
3770;DHT22;1900;48.890;9.190;2023-05-02T08:18:38;17.70;58.40
3770;DHT22;1900;48.890;9.190;2023-05-02T08:21:04;17.80;58.40
3770;DHT22;1900;48.890;9.190;2023-05-02T08:23:30;17.80;58.30
3770;DHT22;1900;48.890;9.190;2023-05-02T08:25:56;17.80;58.10
3770;DHT22;1900;48.890;9.190;2023-05-02T08:28:21;17.80;58.20
3770;DHT22;1900;48.890;9.190;2023-05-02T08:30:47;17.80;58.30
3770;DHT22;1900;48.890;9.190;2023-05-02T08:33:13;17.80;58.40
3770;DHT22;1900;48.890;9.190;2023-05-02T08:35:39;17.90;58.50
3770;DHT22;1900;48.890;9.190;2023-05-02T08:38:05;17.90;58.60
3770;DHT22;1900;48.890;9.190;2023-05-02T08:40:35;18.00;58.90
3770;DHT22;1900;48.890;9.190;2023-05-02T08:43:03;18.00;58.90
3770;DHT22;1900;48.890;9.190;2023-05-02T08:45:36;18.10;58.90
3770;DHT22;1900;48.890;9.190;2023-05-02T08:48:11;18.10;59.00
3770;DHT22;1900;48.890;9.190;2023-05-02T08:50:38;18.20;59.10
3770;DHT22;1900;48.890;9.190;2023-05-02T08:53:07;18.20;58.90
3770;DHT22;1900;48.890;9.190;2023-05-02T08:55:35;18.20;58.90
3770;DHT22;1900;48.890;9.190;2023-05-02T08:58:05;18.30;59.00
3770;DHT22;1900;48.890;9.190;2023-05-02T09:00:32;18.30;59.10
3770;DHT22;1900;48.890;9.190;2023-05-02T09:03:49;18.40;59.30
3770;DHT22;1900;48.890;9.190;2023-05-02T09:05:53;18.40;59.30
3770;DHT22;1900;48.890;9.190;2023-05-02T09:08:23;18.50;59.40
3770;DHT22;1900;48.890;9.190;2023-05-02T09:10:49;18.60;59.40
3770;DHT22;1900;48.890;9.190;2023-05-02T09:16:20;18.70;59.40
3770;DHT22;1900;48.890;9.190;2023-05-02T09:18:50;18.70;59.40
3770;DHT22;1900;48.890;9.190;2023-05-02T09:21:44;18.80;59.50
3770;DHT22;1900;48.890;9.190;2023-05-02T09:24:20;18.80;59.70
3770;DHT22;1900;48.890;9.190;2023-05-02T09:29:26;19.00;59.60
3770;DHT22;1900;48.890;9.190;2023-05-02T09:31:53;19.00;59.70
3770;DHT22;1900;48.890;9.190;2023-05-02T09:34:19;19.00;59.70
3770;DHT22;1900;48.890;9.190;2023-05-02T09:36:46;19.10;59.70
3770;DHT22;1900;48.890;9.190;2023-05-02T09:39:18;19.10;59.40
3770;DHT22;1900;48.890;9.190;2023-05-02T09:41:46;19.10;59.40
3770;DHT22;1900;48.890;9.190;2023-05-02T09:44:13;19.20;59.60
3770;DHT22;1900;48.890;9.190;2023-05-02T09:46:40;19.20;59.60
3770;DHT22;1900;48.890;9.190;2023-05-02T09:49:06;19.30;59.80
3770;DHT22;1900;48.890;9.190;2023-05-02T09:51:34;19.30;60.00
3770;DHT22;1900;48.890;9.190;2023-05-02T09:54:00;19.40;60.20
3770;DHT22;1900;48.890;9.190;2023-05-02T09:56:26;19.40;60.20
3770;DHT22;1900;48.890;9.190;2023-05-02T09:59:11;19.50;60.10
3770;DHT22;1900;48.890;9.190;2023-05-02T10:01:40;19.60;60.20
3770;DHT22;1900;48.890;9.190;2023-05-02T10:04:11;19.60;60.40
3770;DHT22;1900;48.890;9.190;2023-05-02T10:06:44;19.70;60.60
3770;DHT22;1900;48.890;9.190;2023-05-02T10:09:10;19.80;60.90
3770;DHT22;1900;48.890;9.190;2023-05-02T10:11:39;20.00;61.30
3770;DHT22;1900;48.890;9.190;2023-05-02T10:14:08;20.10;61.20
3770;DHT22;1900;48.890;9.190;2023-05-02T10:16:37;20.20;61.30
3770;DHT22;1900;48.890;9.190;2023-05-02T10:19:09;20.30;61.00
3770;DHT22;1900;48.890;9.190;2023-05-02T10:21:38;20.30;60.70
3770;DHT22;1900;48.890;9.190;2023-05-02T10:24:05;20.40;60.70
3770;DHT22;1900;48.890;9.190;2023-05-02T10:26:33;20.40;60.70
3770;DHT22;1900;48.890;9.190;2023-05-02T10:28:59;20.50;60.50
3770;DHT22;1900;48.890;9.190;2023-05-02T10:31:27;20.50;60.40
3770;DHT22;1900;48.890;9.190;2023-05-02T10:33:58;20.60;60.50
3770;DHT22;1900;48.890;9.190;2023-05-02T10:36:26;20.70;60.80
3770;DHT22;1900;48.890;9.190;2023-05-02T10:38:53;20.80;60.80
3770;DHT22;1900;48.890;9.190;2023-05-02T10:41:25;20.80;60.80
3770;DHT22;1900;48.890;9.190;2023-05-02T10:43:52;20.90;60.30
3770;DHT22;1900;48.890;9.190;2023-05-02T10:46:34;20.90;60.30
3770;DHT22;1900;48.890;9.190;2023-05-02T10:49:11;21.00;60.50
3770;DHT22;1900;48.890;9.190;2023-05-02T10:51:39;21.10;60.20
3770;DHT22;1900;48.890;9.190;2023-05-02T10:59:32;21.30;60.10
3770;DHT22;1900;48.890;9.190;2023-05-02T11:01:58;21.30;60.10
3770;DHT22;1900;48.890;9.190;2023-05-02T11:04:24;21.30;59.70
3770;DHT22;1900;48.890;9.190;2023-05-02T11:09:38;21.30;59.30
3770;DHT22;1900;48.890;9.190;2023-05-02T11:12:04;21.30;58.80
3770;DHT22;1900;48.890;9.190;2023-05-02T11:17:08;21.20;58.50
3770;DHT22;1900;48.890;9.190;2023-05-02T11:24:45;21.30;59.50
3770;DHT22;1900;48.890;9.190;2023-05-02T11:35:20;21.60;59.80
3770;DHT22;1900;48.890;9.190;2023-05-02T11:38:00;21.70;60.00
3770;DHT22;1900;48.890;9.190;2023-05-02T11:40:29;21.90;60.60
3770;DHT22;1900;48.890;9.190;2023-05-02T11:42:55;22.00;61.20
3770;DHT22;1900;48.890;9.190;2023-05-02T11:45:31;22.10;61.50
3770;DHT22;1900;48.890;9.190;2023-05-02T11:47:58;22.20;61.50
3770;DHT22;1900;48.890;9.190;2023-05-02T11:50:24;22.30;61.60
3770;DHT22;1900;48.890;9.190;2023-05-02T11:52:52;22.40;60.80
3770;DHT22;1900;48.890;9.190;2023-05-02T11:55:18;22.50;59.90
3770;DHT22;1900;48.890;9.190;2023-05-02T11:57:43;22.50;59.90
3770;DHT22;1900;48.890;9.190;2023-05-02T12:00:10;22.50;59.90
3770;DHT22;1900;48.890;9.190;2023-05-02T12:02:45;22.40;59.60
3770;DHT22;1900;48.890;9.190;2023-05-02T12:05:20;22.40;59.30
3770;DHT22;1900;48.890;9.190;2023-05-02T12:07:52;22.40;59.30
3770;DHT22;1900;48.890;9.190;2023-05-02T12:10:18;22.40;59.20
3770;DHT22;1900;48.890;9.190;2023-05-02T12:12:43;22.30;59.00
3770;DHT22;1900;48.890;9.190;2023-05-02T12:15:10;22.20;58.80
3770;DHT22;1900;48.890;9.190;2023-05-02T12:17:41;22.20;59.00
3770;DHT22;1900;48.890;9.190;2023-05-02T12:20:09;22.10;59.10
3770;DHT22;1900;48.890;9.190;2023-05-02T12:22:35;22.10;59.20
3770;DHT22;1900;48.890;9.190;2023-05-02T12:25:03;22.10;59.30
3770;DHT22;1900;48.890;9.190;2023-05-02T12:27:29;22.00;59.20
3770;DHT22;1900;48.890;9.190;2023-05-02T12:29:57;22.00;59.30
3770;DHT22;1900;48.890;9.190;2023-05-02T12:32:31;21.90;59.30
3770;DHT22;1900;48.890;9.190;2023-05-02T12:34:59;21.90;59.30
3770;DHT22;1900;48.890;9.190;2023-05-02T12:37:26;21.90;59.40
3770;DHT22;1900;48.890;9.190;2023-05-02T12:39:52;21.80;59.40
3770;DHT22;1900;48.890;9.190;2023-05-02T12:42:19;21.80;59.50
3770;DHT22;1900;48.890;9.190;2023-05-02T12:44:47;21.80;59.50
3770;DHT22;1900;48.890;9.190;2023-05-02T12:47:14;21.80;59.30
3770;DHT22;1900;48.890;9.190;2023-05-02T12:49:58;21.70;59.10
3770;DHT22;1900;48.890;9.190;2023-05-02T12:52:49;21.70;59.00
3770;DHT22;1900;48.890;9.190;2023-05-02T12:55:21;21.70;59.10
3770;DHT22;1900;48.890;9.190;2023-05-02T12:57:49;21.60;59.10
3770;DHT22;1900;48.890;9.190;2023-05-02T13:00:16;21.60;59.10
3770;DHT22;1900;48.890;9.190;2023-05-02T13:02:42;21.50;59.10
3770;DHT22;1900;48.890;9.190;2023-05-02T13:05:18;21.50;59.00
3770;DHT22;1900;48.890;9.190;2023-05-02T13:07:44;21.50;58.90
3770;DHT22;1900;48.890;9.190;2023-05-02T13:10:10;21.50;58.90
3770;DHT22;1900;48.890;9.190;2023-05-02T13:12:37;21.50;59.00
3770;DHT22;1900;48.890;9.190;2023-05-02T13:15:04;21.50;59.30
3770;DHT22;1900;48.890;9.190;2023-05-02T13:17:31;21.50;59.60
3770;DHT22;1900;48.890;9.190;2023-05-02T13:19:57;21.60;59.90
3770;DHT22;1900;48.890;9.190;2023-05-02T13:22:24;21.70;59.80
3770;DHT22;1900;48.890;9.190;2023-05-02T13:24:50;21.70;59.70
3770;DHT22;1900;48.890;9.190;2023-05-02T13:27:16;21.80;59.70
3770;DHT22;1900;48.890;9.190;2023-05-02T13:29:47;21.80;59.80
3770;DHT22;1900;48.890;9.190;2023-05-02T13:32:13;21.90;60.00
3770;DHT22;1900;48.890;9.190;2023-05-02T13:34:39;22.00;60.10
3770;DHT22;1900;48.890;9.190;2023-05-02T13:37:04;22.10;60.70
3770;DHT22;1900;48.890;9.190;2023-05-02T13:39:30;22.30;61.00
3770;DHT22;1900;48.890;9.190;2023-05-02T13:41:56;22.40;60.80
3770;DHT22;1900;48.890;9.190;2023-05-02T13:44:21;22.60;61.60
3770;DHT22;1900;48.890;9.190;2023-05-02T13:46:47;22.70;61.80
3770;DHT22;1900;48.890;9.190;2023-05-02T13:49:13;22.90;61.70
3770;DHT22;1900;48.890;9.190;2023-05-02T13:51:39;23.00;61.40
3770;DHT22;1900;48.890;9.190;2023-05-02T13:54:05;23.00;60.80
3770;DHT22;1900;48.890;9.190;2023-05-02T13:56:31;23.10;60.60
3770;DHT22;1900;48.890;9.190;2023-05-02T13:58:56;23.20;60.60
3770;DHT22;1900;48.890;9.190;2023-05-02T14:01:22;23.20;60.20
3770;DHT22;1900;48.890;9.190;2023-05-02T14:03:50;23.20;60.10
3770;DHT22;1900;48.890;9.190;2023-05-02T14:06:16;23.20;60.00
3770;DHT22;1900;48.890;9.190;2023-05-02T14:08:42;23.20;59.90
3770;DHT22;1900;48.890;9.190;2023-05-02T14:11:09;23.10;59.60
3770;DHT22;1900;48.890;9.190;2023-05-02T14:13:35;23.10;59.50
3770;DHT22;1900;48.890;9.190;2023-05-02T14:16:01;23.10;59.20
3770;DHT22;1900;48.890;9.190;2023-05-02T14:18:27;23.00;59.10
3770;DHT22;1900;48.890;9.190;2023-05-02T14:20:52;23.00;59.10
3770;DHT22;1900;48.890;9.190;2023-05-02T14:23:18;22.90;59.00
3770;DHT22;1900;48.890;9.190;2023-05-02T14:25:44;22.90;58.90
3770;DHT22;1900;48.890;9.190;2023-05-02T14:28:09;22.90;59.00
3770;DHT22;1900;48.890;9.190;2023-05-02T14:30:35;22.90;59.30
3770;DHT22;1900;48.890;9.190;2023-05-02T14:33:01;22.90;59.30
3770;DHT22;1900;48.890;9.190;2023-05-02T14:35:27;23.00;59.60
3770;DHT22;1900;48.890;9.190;2023-05-02T14:37:53;23.00;59.50
3770;DHT22;1900;48.890;9.190;2023-05-02T14:40:19;23.00;59.30
3770;DHT22;1900;48.890;9.190;2023-05-02T14:42:45;23.00;59.50
3770;DHT22;1900;48.890;9.190;2023-05-02T14:45:11;23.10;59.70
3770;DHT22;1900;48.890;9.190;2023-05-02T14:47:37;23.20;59.80
3770;DHT22;1900;48.890;9.190;2023-05-02T14:50:03;23.30;59.00
3770;DHT22;1900;48.890;9.190;2023-05-02T14:52:29;23.30;58.50
3770;DHT22;1900;48.890;9.190;2023-05-02T14:54:58;23.30;58.80
3770;DHT22;1900;48.890;9.190;2023-05-02T14:57:24;23.40;58.80
3770;DHT22;1900;48.890;9.190;2023-05-02T14:59:50;23.50;59.30
3770;DHT22;1900;48.890;9.190;2023-05-02T15:02:15;23.50;59.50
3770;DHT22;1900;48.890;9.190;2023-05-02T15:04:41;23.60;58.70
3770;DHT22;1900;48.890;9.190;2023-05-02T15:07:07;23.70;58.50
3770;DHT22;1900;48.890;9.190;2023-05-02T15:09:32;23.70;58.80
3770;DHT22;1900;48.890;9.190;2023-05-02T15:11:58;23.80;59.00
3770;DHT22;1900;48.890;9.190;2023-05-02T15:14:24;23.90;59.30
3770;DHT22;1900;48.890;9.190;2023-05-02T15:16:49;24.00;59.50
3770;DHT22;1900;48.890;9.190;2023-05-02T15:19:15;24.00;59.70
3770;DHT22;1900;48.890;9.190;2023-05-02T15:21:41;24.10;59.30
3770;DHT22;1900;48.890;9.190;2023-05-02T15:24:07;24.10;59.30
3770;DHT22;1900;48.890;9.190;2023-05-02T15:26:32;24.20;59.10
3770;DHT22;1900;48.890;9.190;2023-05-02T15:28:58;24.20;58.80
3770;DHT22;1900;48.890;9.190;2023-05-02T15:31:24;24.20;58.80
3770;DHT22;1900;48.890;9.190;2023-05-02T15:33:50;24.20;58.90
3770;DHT22;1900;48.890;9.190;2023-05-02T15:36:16;24.20;58.80
3770;DHT22;1900;48.890;9.190;2023-05-02T15:38:42;24.20;58.70
3770;DHT22;1900;48.890;9.190;2023-05-02T15:41:09;24.20;58.60
3770;DHT22;1900;48.890;9.190;2023-05-02T15:43:35;24.20;58.50
3770;DHT22;1900;48.890;9.190;2023-05-02T15:46:01;24.10;57.80
3770;DHT22;1900;48.890;9.190;2023-05-02T15:48:31;24.10;57.80
3770;DHT22;1900;48.890;9.190;2023-05-02T15:51:00;24.10;57.50
3770;DHT22;1900;48.890;9.190;2023-05-02T15:53:27;24.00;56.80
3770;DHT22;1900;48.890;9.190;2023-05-02T15:55:53;23.90;56.80
3770;DHT22;1900;48.890;9.190;2023-05-02T15:58:19;23.90;56.60
3770;DHT22;1900;48.890;9.190;2023-05-02T16:00:45;23.80;56.70
3770;DHT22;1900;48.890;9.190;2023-05-02T16:03:12;23.70;56.50
3770;DHT22;1900;48.890;9.190;2023-05-02T16:05:38;23.60;56.60
3770;DHT22;1900;48.890;9.190;2023-05-02T16:08:04;23.60;56.60
3770;DHT22;1900;48.890;9.190;2023-05-02T16:10:30;23.50;56.70
3770;DHT22;1900;48.890;9.190;2023-05-02T16:12:56;23.50;56.70
3770;DHT22;1900;48.890;9.190;2023-05-02T16:15:22;23.40;56.60
3770;DHT22;1900;48.890;9.190;2023-05-02T16:17:49;23.40;55.90
3770;DHT22;1900;48.890;9.190;2023-05-02T16:20:16;23.30;55.70
3770;DHT22;1900;48.890;9.190;2023-05-02T16:22:46;23.20;55.50
3770;DHT22;1900;48.890;9.190;2023-05-02T16:25:14;23.20;55.70
3770;DHT22;1900;48.890;9.190;2023-05-02T16:27:40;23.20;55.70
3770;DHT22;1900;48.890;9.190;2023-05-02T16:30:06;23.10;55.60
3770;DHT22;1900;48.890;9.190;2023-05-02T16:32:33;23.00;55.60
3770;DHT22;1900;48.890;9.190;2023-05-02T16:34:58;23.00;55.80
3770;DHT22;1900;48.890;9.190;2023-05-02T16:37:24;23.00;55.90
3770;DHT22;1900;48.890;9.190;2023-05-02T16:39:50;23.00;56.10
3770;DHT22;1900;48.890;9.190;2023-05-02T16:42:15;23.00;56.10
3770;DHT22;1900;48.890;9.190;2023-05-02T16:44:41;22.90;55.90
3770;DHT22;1900;48.890;9.190;2023-05-02T16:47:07;22.90;55.90
3770;DHT22;1900;48.890;9.190;2023-05-02T16:49:33;22.90;55.90
3770;DHT22;1900;48.890;9.190;2023-05-02T16:51:59;22.90;55.80
3770;DHT22;1900;48.890;9.190;2023-05-02T16:54:25;22.90;55.90
3770;DHT22;1900;48.890;9.190;2023-05-02T16:56:51;22.90;55.90